Time;durP1;ratioP1;P1;durP2;ratioP2;P2;SDS_P1;SDS_P2;PMS_P1;PMS_P2;Temp;Humidity;BMP_temperature;BMP_pressure;BME280_temperature;BME280_humidity;BME280_pressure;Samples;Min_cycle;Max_cycle;Signal;HPM_P1;HPM_P2
2022/07/18 00:01:38;;;;;;;8.60;3.05;;;;;;;16.53;54.19;100162.63;5116567;27;20374;-58
2022/07/18 00:04:03;;;;;;;12.07;3.40;;;;;;;16.48;53.42;100157.16;5120457;27;20043;-58
2022/07/18 00:06:29;;;;;;;10.45;3.80;;;;;;;16.43;53.58;100160.63;5116974;27;20061;-57
2022/07/18 00:08:54;;;;;;;4.95;2.90;;;;;;;16.38;55.43;100166.00;5105780;27;20035;-57
2022/07/18 00:11:20;;;;;;;8.05;3.55;;;;;;;16.23;55.02;100164.00;5114103;27;20119;-57
2022/07/18 00:13:46;;;;;;;10.25;3.35;;;;;;;16.22;55.10;100161.53;5121291;27;20185;-57
2022/07/18 00:16:11;;;;;;;7.22;3.22;;;;;;;16.18;55.69;100172.06;5118919;27;20465;-56
2022/07/18 00:18:37;;;;;;;8.32;3.30;;;;;;;16.14;55.37;100173.63;5115949;27;20027;-57
2022/07/18 00:21:02;;;;;;;9.32;3.08;;;;;;;16.21;55.23;100159.91;5106122;28;20031;-57
2022/07/18 00:23:28;;;;;;;8.88;3.20;;;;;;;16.16;54.88;100169.59;5118061;27;20125;-58
2022/07/18 00:25:53;;;;;;;7.40;2.85;;;;;;;16.14;53.49;100170.94;5123332;27;20112;-58
2022/07/18 00:28:19;;;;;;;10.18;3.58;;;;;;;15.99;54.33;100173.47;5119513;27;20027;-57
2022/07/18 00:30:44;;;;;;;10.38;3.00;;;;;;;15.97;54.29;100171.03;5102726;28;20030;-57
2022/07/18 00:33:09;;;;;;;9.48;3.05;;;;;;;15.84;55.39;100176.84;5118963;27;20390;-57
2022/07/18 00:35:35;;;;;;;8.15;3.00;;;;;;;15.82;56.75;100170.88;5124848;27;20079;-57
2022/07/18 00:38:03;;;;;;;12.18;3.20;;;;;;;15.87;56.87;100176.31;5099073;28;20077;-57
2022/07/18 00:40:30;;;;;;;12.10;3.45;;;;;;;15.58;56.94;100170.31;5119372;27;20031;-57
2022/07/18 00:42:55;;;;;;;7.07;2.90;;;;;;;15.44;57.96;100175.28;5113784;27;20366;-57
2022/07/18 00:45:21;;;;;;;8.60;3.20;;;;;;;15.36;57.74;100175.72;5116549;27;20031;-57
2022/07/18 00:47:46;;;;;;;6.85;3.22;;;;;;;15.14;58.86;100171.09;5121821;27;20035;-57
2022/07/18 00:50:11;;;;;;;7.28;3.30;;;;;;;15.14;59.54;100171.09;5099547;28;20106;-57
2022/07/18 00:52:37;;;;;;;10.27;3.20;;;;;;;15.25;56.76;100170.19;5119382;28;20462;-56
2022/07/18 00:55:06;;;;;;;8.55;3.10;;;;;;;15.39;56.32;100167.09;5119632;28;20545;-56
2022/07/18 00:57:31;;;;;;;14.50;3.40;;;;;;;15.45;56.30;100166.09;5107827;28;20020;-56
2022/07/18 01:02:40;;;;;;;7.97;3.35;;;;;;;15.49;56.89;100170.75;5125809;28;20639;-57
2022/07/18 01:05:07;;;;;;;6.75;3.25;;;;;;;15.35;57.67;100164.09;5123314;28;20064;-56
2022/07/18 01:07:33;;;;;;;11.68;3.20;;;;;;;15.36;58.79;100159.50;5120426;28;20150;-56
2022/07/18 01:09:59;;;;;;;6.93;3.60;;;;;;;15.26;58.04;100161.00;5115482;28;20488;-56
2022/07/18 01:12:25;;;;;;;11.60;3.47;;;;;;;15.17;59.84;100167.91;5096212;27;20023;-56
2022/07/18 01:14:51;;;;;;;8.38;3.40;;;;;;;15.05;59.37;100151.00;5107110;28;20034;-58
2022/07/18 01:17:17;;;;;;;5.75;3.55;;;;;;;15.06;58.62;100155.34;5105464;27;20417;-56
2022/07/18 01:19:42;;;;;;;9.38;3.22;;;;;;;15.08;60.29;100158.63;5120181;27;20027;-58
2022/07/18 01:22:08;;;;;;;7.05;3.45;;;;;;;14.95;60.90;100158.97;5124050;27;20034;-58
2022/07/18 01:24:34;;;;;;;7.18;3.42;;;;;;;14.88;59.79;100153.75;5121177;27;20455;-58
2022/07/18 01:26:59;;;;;;;9.50;3.50;;;;;;;14.95;58.16;100158.97;5120444;27;20043;-57
2022/07/18 01:29:25;;;;;;;11.95;3.35;;;;;;;14.99;60.18;100154.69;5102837;27;20493;-57
2022/07/18 01:31:50;;;;;;;11.40;3.83;;;;;;;15.07;58.29;100156.97;5124916;27;20052;-57
2022/07/18 01:34:23;;;;;;;8.88;3.50;;;;;;;14.98;58.42;100151.19;5119945;27;20020;-58
2022/07/18 01:36:48;;;;;;;9.52;3.33;;;;;;;14.53;61.14;100152.16;5120231;27;20027;-57
2022/07/18 01:39:14;;;;;;;8.20;2.95;;;;;;;14.37;61.37;100150.22;5121164;27;20077;-57
2022/07/18 01:41:40;;;;;;;6.53;3.20;;;;;;;14.10;63.38;100150.03;5124358;27;20692;-57
2022/07/18 01:44:06;;;;;;;9.93;3.47;;;;;;;13.99;63.37;100154.44;5105097;27;20373;-57
2022/07/18 01:46:31;;;;;;;8.40;3.70;;;;;;;13.92;64.01;100154.59;5119929;27;20119;-57
2022/07/18 01:48:57;;;;;;;10.18;3.55;;;;;;;13.72;64.28;100148.81;5119401;27;20026;-57
2022/07/18 01:51:22;;;;;;;10.52;3.70;;;;;;;13.77;63.98;100148.91;5104341;28;20032;-57
2022/07/18 01:53:58;;;;;;;9.32;3.95;;;;;;;13.81;64.37;100148.19;5122703;27;20028;-57
2022/07/18 01:56:23;;;;;;;7.65;3.17;;;;;;;13.72;64.45;100146.13;5123881;27;20505;-57
2022/07/18 01:58:49;;;;;;;12.70;3.40;;;;;;;13.84;63.59;100152.28;5102930;27;20027;-58
2022/07/18 02:01:14;;;;;;;11.80;3.60;;;;;;;13.68;64.03;100145.81;5119856;27;20027;-59
2022/07/18 02:03:39;;;;;;;11.93;3.42;;;;;;;13.68;64.00;100144.97;5116164;27;20046;-58
2022/07/18 02:06:05;;;;;;;8.77;3.38;;;;;;;13.72;63.57;100138.84;5121840;27;20031;-57
2022/07/18 02:08:30;;;;;;;8.50;3.60;;;;;;;13.87;62.78;100132.94;5119233;27;20023;-58
2022/07/18 02:10:56;;;;;;;8.52;3.60;;;;;;;13.93;63.47;100134.69;5122539;27;20027;-57
2022/07/18 02:13:21;;;;;;;7.97;3.60;;;;;;;13.93;63.33;100137.38;5120169;27;20381;-58
2022/07/18 02:15:47;;;;;;;9.90;3.60;;;;;;;13.94;62.85;100133.59;5098902;27;20366;-58
2022/07/18 02:18:12;;;;;;;7.10;3.28;;;;;;;13.95;62.36;100139.81;5121392;27;20016;-58
2022/07/18 02:20:38;;;;;;;7.72;3.30;;;;;;;13.94;62.83;100136.28;5117020;27;20028;-57
2022/07/18 02:23:04;;;;;;;8.77;3.53;;;;;;;13.86;63.43;100143.97;5124317;27;20454;-57
2022/07/18 02:25:29;;;;;;;9.20;3.10;;;;;;;13.79;62.24;100138.72;5118918;27;20062;-57
2022/07/18 02:27:55;;;;;;;6.80;3.60;;;;;;;13.80;62.21;100134.97;5100726;28;20074;-57
2022/07/18 02:30:21;;;;;;;9.90;4.07;;;;;;;14.09;59.71;100138.44;5117965;27;20031;-57
2022/07/18 02:32:47;;;;;;;13.55;3.38;;;;;;;14.12;59.03;100135.25;5098297;27;20430;-57
2022/07/18 02:35:12;;;;;;;7.30;3.45;;;;;;;14.05;59.74;100134.59;5125033;27;20050;-57
2022/07/18 02:37:38;;;;;;;9.10;3.50;;;;;;;14.02;59.62;100141.28;5119845;27;20022;-57
2022/07/18 02:40:08;;;;;;;9.20;3.30;;;;;;;14.03;59.84;100142.94;5121337;27;20024;-57
2022/07/18 02:42:33;;;;;;;;;;;;;;;14.03;60.53;100132.16;5119796;27;20114;-58
2022/07/18 02:45:01;;;;;;;8.20;3.35;;;;;;;14.09;61.93;100134.94;5115397;27;20018;-59
2022/07/18 02:47:27;;;;;;;7.95;3.35;;;;;;;14.08;61.71;100130.59;5100651;27;20232;-59
2022/07/18 02:49:52;;;;;;;8.60;3.42;;;;;;;14.23;61.16;100138.97;5112944;27;20035;-58
2022/07/18 02:52:18;;;;;;;12.55;3.45;;;;;;;14.34;59.33;100138.06;5117585;27;20027;-58
2022/07/18 02:54:43;;;;;;;7.13;3.38;;;;;;;14.37;59.98;100136.75;5102994;27;20022;-57
2022/07/18 02:57:08;;;;;;;7.60;3.20;;;;;;;14.29;60.33;100143.38;5100787;27;20028;-57
2022/07/18 02:59:34;;;;;;;7.38;3.10;;;;;;;14.22;60.82;100140.00;5123953;27;20106;-57
2022/07/18 03:01:59;;;;;;;9.13;3.22;;;;;;;14.30;60.65;100141.47;5101033;27;20027;-58
2022/07/18 03:04:25;;;;;;;6.68;3.40;;;;;;;14.19;60.70;100140.50;5117004;27;20040;-57
2022/07/18 03:06:51;;;;;;;7.65;3.20;;;;;;;14.14;61.30;100135.03;5100625;28;20035;-57
2022/07/18 03:09:16;;;;;;;9.45;3.30;;;;;;;14.12;60.97;100139.84;5118212;27;20051;-57
2022/07/18 03:11:42;;;;;;;10.90;3.60;;;;;;;14.09;61.47;100140.31;5114984;27;20395;-57
2022/07/18 03:14:07;;;;;;;8.38;3.53;;;;;;;14.17;61.36;100145.31;5103759;27;20389;-57
2022/07/18 03:16:33;;;;;;;8.10;3.38;;;;;;;14.11;60.91;100138.22;5096399;27;20141;-57
2022/07/18 03:18:59;;;;;;;6.70;3.10;;;;;;;14.24;60.42;100138.69;5122738;27;20023;-57
2022/07/18 03:21:24;;;;;;;7.57;3.53;;;;;;;14.30;61.02;100131.50;5112617;27;20501;-57
2022/07/18 03:23:50;;;;;;;7.85;3.28;;;;;;;14.24;60.95;100137.88;5118055;27;20240;-57
2022/07/18 03:26:15;;;;;;;8.10;3.90;;;;;;;14.17;61.11;100139.91;5121379;27;20023;-57
2022/07/18 03:28:41;;;;;;;7.03;3.58;;;;;;;14.18;61.41;100128.09;5114905;27;20019;-57
2022/07/18 03:31:06;;;;;;;8.85;3.22;;;;;;;14.04;61.69;100130.28;5116678;27;20023;-58
2022/07/18 03:33:32;;;;;;;8.50;3.17;;;;;;;13.96;63.06;100131.50;5118959;27;20389;-57
2022/07/18 03:35:57;;;;;;;8.25;3.83;;;;;;;13.89;63.46;100130.00;5118921;27;20378;-57
2022/07/18 03:38:23;;;;;;;8.77;3.78;;;;;;;13.85;63.95;100129.66;5116083;27;20027;-57
2022/07/18 03:40:48;;;;;;;11.90;3.90;;;;;;;13.76;64.26;100139.22;5114303;27;20019;-57
2022/07/18 03:43:13;;;;;;;10.15;3.63;;;;;;;13.82;64.39;100140.94;5117619;27;20024;-58
2022/07/18 03:45:39;;;;;;;13.25;3.95;;;;;;;13.87;62.89;100135.63;5120781;27;20023;-58
2022/07/18 03:48:05;;;;;;;7.78;3.53;;;;;;;13.87;63.65;100138.31;5098882;27;20031;-58
2022/07/18 03:50:30;;;;;;;10.07;3.50;;;;;;;14.16;62.62;100143.69;5118814;27;20402;-58
2022/07/18 03:52:56;;;;;;;8.77;3.20;;;;;;;14.39;62.54;100142.72;5101969;28;20462;-57
2022/07/18 03:55:21;;;;;;;10.60;3.67;;;;;;;14.28;63.97;100144.44;5114149;27;20027;-57
2022/07/18 03:57:47;;;;;;;6.50;3.33;;;;;;;14.79;61.80;100147.13;5097369;28;20032;-58
2022/07/18 04:00:13;;;;;;;9.27;3.40;;;;;;;15.10;60.15;100146.50;5100183;27;20031;-58
2022/07/18 04:02:42;;;;;;;10.20;3.63;;;;;;;16.04;56.91;100150.00;5113769;27;20023;-57
2022/07/18 04:05:08;;;;;;;10.52;3.47;;;;;;;16.63;55.56;100148.34;5096326;28;20023;-57
2022/07/18 04:07:33;;;;;;;5.72;3.13;;;;;;;16.88;54.36;100150.44;5118891;27;20043;-57
2022/07/18 04:09:59;;;;;;;8.80;3.50;;;;;;;17.74;52.54;100149.16;5120341;27;20050;-57
2022/07/18 04:12:24;;;;;;;9.00;3.50;;;;;;;18.15;51.07;100155.50;5121715;27;20020;-57
2022/07/18 04:14:50;;;;;;;19.17;3.60;;;;;;;17.90;51.30;100142.72;5120620;27;20100;-57
2022/07/18 04:17:15;;;;;;;18.10;3.60;;;;;;;18.03;51.17;100153.06;5114269;27;20509;-57
2022/07/18 04:19:40;;;;;;;12.90;5.75;;;;;;;17.89;51.17;100152.75;5116303;27;20027;-57
2022/07/18 04:22:06;;;;;;;10.25;3.60;;;;;;;18.16;51.67;100157.13;5098770;28;20045;-57
2022/07/18 04:24:31;;;;;;;9.45;3.67;;;;;;;19.77;47.33;100154.66;5121046;27;20015;-57
2022/07/18 04:26:57;;;;;;;9.57;3.75;;;;;;;20.42;45.65;100163.44;5120382;27;20020;-57
2022/07/18 04:29:22;;;;;;;10.73;4.05;;;;;;;20.85;44.00;100155.44;5118959;27;20469;-57
2022/07/18 04:31:48;;;;;;;14.32;4.35;;;;;;;20.45;44.97;100157.41;5127581;27;20388;-57
2022/07/18 04:34:13;;;;;;;10.82;4.20;;;;;;;19.90;45.41;100151.28;5120342;27;20023;-57
2022/07/18 04:36:38;;;;;;;10.15;4.22;;;;;;;20.17;45.43;100150.03;5098079;28;20030;-57
2022/07/18 04:39:04;;;;;;;12.25;3.97;;;;;;;20.62;44.31;100142.59;5122155;27;20023;-57
2022/07/18 04:41:29;;;;;;;12.57;4.28;;;;;;;21.56;42.87;100153.00;5116990;27;20466;-57
2022/07/18 04:43:55;;;;;;;10.55;4.65;;;;;;;20.73;44.30;100152.28;5100294;28;20392;-57
2022/07/18 04:46:20;;;;;;;12.05;4.35;;;;;;;20.36;45.61;100152.84;5116719;27;20515;-57
2022/07/18 04:48:46;;;;;;;10.70;4.03;;;;;;;20.19;45.38;100153.25;5113507;27;20031;-57
2022/07/18 04:51:11;;;;;;;14.30;4.40;;;;;;;19.57;47.29;100147.38;5116678;28;20051;-57
2022/07/18 04:53:37;;;;;;;12.98;4.35;;;;;;;20.55;45.44;100144.84;5117687;28;20031;-57
2022/07/18 04:56:02;;;;;;;24.80;4.50;;;;;;;21.62;42.96;100148.31;5114760;28;20084;-57
2022/07/18 04:58:31;;;;;;;12.80;4.00;;;;;;;21.98;42.24;100152.13;5095686;28;20036;-57
2022/07/18 05:00:56;;;;;;;10.05;4.10;;;;;;;22.63;40.93;100155.22;5117100;28;20030;-57
2022/07/18 05:03:21;;;;;;;11.77;4.50;;;;;;;23.31;39.18;100149.00;5112809;28;20396;-57
2022/07/18 05:05:47;;;;;;;15.80;4.43;;;;;;;23.88;38.28;100159.59;5088293;28;20027;-57
2022/07/18 05:08:13;;;;;;;11.80;4.13;;;;;;;23.56;38.39;100157.78;5109921;28;20080;-57
2022/07/18 05:10:39;;;;;;;21.92;4.57;;;;;;;23.95;38.18;100165.44;5120322;28;20420;-58
2022/07/18 05:13:04;;;;;;;13.90;4.32;;;;;;;23.88;38.15;100165.88;5118966;28;20024;-60
2022/07/18 05:15:30;;;;;;;16.80;4.72;;;;;;;24.74;36.28;100164.91;5121857;28;20461;-58
2022/07/18 05:17:55;;;;;;;12.63;4.20;;;;;;;24.36;37.23;100163.66;5112588;28;20060;-58
2022/07/18 05:20:21;;;;;;;10.73;4.15;;;;;;;24.78;36.89;100170.56;5111532;28;20027;-58
2022/07/18 05:22:47;;;;;;;9.10;4.03;;;;;;;25.99;34.49;100164.66;5098730;28;20381;-56
2022/07/18 05:25:13;;;;;;;14.55;4.60;;;;;;;25.89;34.73;100156.75;5120114;28;20027;-57
2022/07/18 05:27:38;;;;;;;25.05;4.75;;;;;;;25.08;35.88;100152.47;5119066;28;20043;-57
2022/07/18 05:30:05;;;;;;;14.35;4.20;;;;;;;25.77;35.31;100151.03;5116450;28;20030;-57
2022/07/18 05:32:30;;;;;;;12.40;3.85;;;;;;;26.25;34.29;100155.59;5109588;28;20473;-57
2022/07/18 05:34:56;;;;;;;19.20;4.38;;;;;;;25.91;34.92;100153.66;5099899;28;20388;-57
2022/07/18 05:37:21;;;;;;;11.45;3.88;;;;;;;25.69;35.60;100157.34;5116052;28;20473;-56
2022/07/18 05:39:47;;;;;;;17.52;4.55;;;;;;;27.05;33.58;100164.13;5116471;28;20019;-57
2022/07/18 05:42:13;;;;;;;13.48;4.10;;;;;;;25.96;36.09;100164.47;5089537;28;20035;-57
2022/07/18 05:44:38;;;;;;;11.15;4.10;;;;;;;25.70;36.52;100161.69;5120151;28;20359;-57
2022/07/18 05:47:04;;;;;;;11.45;3.67;;;;;;;25.44;36.80;100165.22;5121553;28;20458;-57
2022/07/18 05:49:29;;;;;;;17.17;4.55;;;;;;;26.42;35.19;100161.06;5122872;28;20458;-58
2022/07/18 05:51:55;;;;;;;19.30;4.60;;;;;;;26.27;34.37;100164.31;5118707;28;20067;-58
2022/07/18 05:54:20;;;;;;;68.65;7.55;;;;;;;26.13;34.22;100155.44;5098392;28;20019;-58
2022/07/18 05:56:49;;;;;;;95.93;9.13;;;;;;;25.80;34.74;100153.94;5112693;28;20381;-58
2022/07/18 05:59:16;;;;;;;107.25;12.38;;;;;;;26.13;33.37;100153.47;5120618;27;20043;-58
2022/07/18 06:01:41;;;;;;;86.38;9.30;;;;;;;26.86;32.58;100152.75;5099495;28;20493;-58
2022/07/18 06:04:07;;;;;;;112.55;11.35;;;;;;;26.44;33.08;100149.75;5104674;27;20039;-58
2022/07/18 06:06:32;;;;;;;131.50;12.35;;;;;;;28.05;31.50;100149.94;5117302;27;20039;-58
2022/07/18 06:08:58;;;;;;;127.50;11.50;;;;;;;27.25;32.19;100146.09;5103128;27;20362;-58
2022/07/18 06:11:23;;;;;;;125.60;12.48;;;;;;;27.04;32.44;100150.72;5122913;27;20023;-58
2022/07/18 06:13:48;;;;;;;96.20;11.80;;;;;;;28.69;30.67;100162.50;5116418;27;20023;-58
2022/07/18 06:16:14;;;;;;;100.70;11.00;;;;;;;28.12;31.59;100153.75;5129662;27;20019;-58
2022/07/18 06:18:39;;;;;;;105.93;11.05;;;;;;;28.28;31.21;100151.19;5122124;27;20031;-58
2022/07/18 06:21:05;;;;;;;86.78;9.73;;;;;;;28.15;31.19;100150.31;5124250;27;20026;-58
2022/07/18 06:23:31;;;;;;;104.22;9.77;;;;;;;28.49;31.11;100142.09;5118562;27;20054;-58
2022/07/18 06:25:57;;;;;;;75.10;9.60;;;;;;;28.44;31.20;100140.34;5117315;27;20429;-58
2022/07/18 06:28:22;;;;;;;102.18;10.07;;;;;;;28.02;31.36;100143.16;5107355;28;20027;-58
2022/07/18 06:30:48;;;;;;;87.07;9.57;;;;;;;27.79;31.62;100145.44;5124906;27;20151;-58
2022/07/18 06:33:13;;;;;;;84.40;9.80;;;;;;;26.94;32.57;100146.38;5113297;27;20465;-58
2022/07/18 06:35:39;;;;;;;114.60;10.43;;;;;;;27.38;32.31;100141.47;5125575;27;20016;-57
2022/07/18 06:38:05;;;;;;;89.10;9.55;;;;;;;28.24;30.76;100133.72;5122820;27;20023;-58
2022/07/18 06:40:31;;;;;;;87.15;9.93;;;;;;;28.52;30.54;100144.97;5099989;27;20028;-58
2022/07/18 06:42:56;;;;;;;108.88;10.55;;;;;;;28.73;30.94;100136.63;5123187;27;20024;-58
2022/07/18 06:45:21;;;;;;;151.98;11.75;;;;;;;29.42;30.14;100134.94;5126120;27;20023;-58
2022/07/18 06:47:47;;;;;;;156.07;12.95;;;;;;;29.93;29.72;100133.69;5117377;27;20044;-58
2022/07/18 06:50:13;;;;;;;183.95;13.18;;;;;;;30.06;29.45;100132.50;5118364;27;20027;-58
2022/07/18 06:52:39;;;;;;;174.82;13.38;;;;;;;29.25;29.65;100126.88;5125095;27;20491;-58
2022/07/18 06:55:05;;;;;;;179.80;13.32;;;;;;;30.15;29.38;100124.84;5123829;27;20027;-58
2022/07/18 06:57:31;;;;;;;144.77;13.13;;;;;;;29.09;30.36;100128.75;5119488;27;20068;-58
2022/07/18 06:59:56;;;;;;;133.68;12.52;;;;;;;28.46;31.46;100127.03;5117421;27;20043;-58
2022/07/18 07:02:22;;;;;;;168.32;13.75;;;;;;;29.12;30.50;100125.31;5117965;27;20485;-58
2022/07/18 07:04:47;;;;;;;167.55;13.43;;;;;;;30.84;28.38;100127.50;5119363;27;20032;-58
2022/07/18 07:07:13;;;;;;;137.32;11.73;;;;;;;29.53;30.03;100127.00;5116128;27;20121;-56
2022/07/18 07:09:38;;;;;;;146.10;11.43;;;;;;;29.01;30.61;100122.19;5103658;28;20043;-59
2022/07/18 07:12:03;;;;;;;122.93;10.38;;;;;;;29.18;30.52;100121.97;5118610;27;20020;-56
2022/07/18 07:14:29;;;;;;;132.05;11.80;;;;;;;29.49;30.79;100125.28;5099131;28;20082;-57
2022/07/18 07:16:54;;;;;;;111.50;11.85;;;;;;;29.92;29.78;100115.50;5118419;27;20024;-56
2022/07/18 07:19:20;;;;;;;118.00;11.15;;;;;;;28.75;31.75;100122.50;5115821;27;20501;-56
2022/07/18 07:21:45;;;;;;;122.38;9.90;;;;;;;29.66;29.83;100127.78;5120499;27;20027;-56
2022/07/18 07:24:11;;;;;;;137.95;10.60;;;;;;;32.36;27.01;100122.91;5102993;27;20075;-56
2022/07/18 07:26:36;;;;;;;131.15;10.80;;;;;;;30.91;28.27;100122.13;5118637;27;20032;-57
2022/07/18 07:29:02;;;;;;;123.25;10.35;;;;;;;30.57;28.78;100129.13;5100813;27;20497;-56
2022/07/18 07:31:27;;;;;;;119.18;10.05;;;;;;;28.78;31.33;100121.78;5117924;27;20023;-56
2022/07/18 07:33:53;;;;;;;125.20;9.98;;;;;;;30.46;29.64;100124.13;5115895;27;20031;-57
2022/07/18 07:36:18;;;;;;;130.90;11.23;;;;;;;30.98;28.22;100122.31;5080273;28;20454;-57
2022/07/18 07:38:44;;;;;;;134.52;10.98;;;;;;;30.12;29.68;100125.53;5120643;27;20426;-57
2022/07/18 07:41:09;;;;;;;109.85;9.60;;;;;;;30.63;28.53;100119.41;5115411;27;20543;-58
2022/07/18 07:43:37;;;;;;;93.70;9.07;;;;;;;31.53;27.81;100112.13;5127388;27;20521;-57
2022/07/18 07:46:02;;;;;;;93.63;9.63;;;;;;;30.77;29.25;100105.13;5102993;27;20031;-56
2022/07/18 07:48:28;;;;;;;113.47;9.73;;;;;;;31.33;28.19;100099.38;5116044;27;20342;-55
2022/07/18 07:50:53;;;;;;;81.80;8.07;;;;;;;30.93;28.89;100105.97;5102346;27;20023;-55
2022/07/18 07:53:19;;;;;;;86.65;8.25;;;;;;;30.74;29.24;100106.66;5117681;27;20030;-57
2022/07/18 07:55:44;;;;;;;95.85;8.32;;;;;;;30.29;29.18;100105.91;5116288;27;20553;-56
2022/07/18 07:58:10;;;;;;;79.43;8.10;;;;;;;31.84;27.40;100102.06;5102786;27;20035;-56
2022/07/18 08:00:35;;;;;;;80.00;7.53;;;;;;;32.18;27.63;100094.84;5118041;27;20374;-57
2022/07/18 08:03:02;;;;;;;84.90;7.82;;;;;;;32.21;27.40;100096.09;5107006;27;20100;-57
2022/07/18 08:05:30;;;;;;;73.85;7.68;;;;;;;33.06;26.96;100104.31;5115461;27;20095;-57
2022/07/18 08:07:56;;;;;;;67.32;7.15;;;;;;;32.50;27.80;100097.44;5116776;27;20032;-57
2022/07/18 08:10:22;;;;;;;67.25;7.57;;;;;;;32.18;27.46;100105.16;5082324;28;20069;-56
2022/07/18 08:12:47;;;;;;;71.00;6.90;;;;;;;33.24;26.06;100101.78;5119196;27;20553;-57
2022/07/18 08:15:13;;;;;;;57.30;6.25;;;;;;;33.17;26.32;100102.47;5120342;27;20100;-57
2022/07/18 08:17:38;;;;;;;58.65;7.55;;;;;;;34.00;25.76;100098.84;5117095;27;20043;-56
2022/07/18 08:20:05;;;;;;;58.38;7.28;;;;;;;33.24;26.31;100094.25;5117194;27;20067;-56
2022/07/18 08:22:30;;;;;;;82.13;7.75;;;;;;;33.41;26.01;100094.91;5119568;27;20023;-56
2022/07/18 08:24:55;;;;;;;72.75;7.00;;;;;;;33.38;26.24;100090.09;5098112;28;20077;-56
2022/07/18 08:27:21;;;;;;;70.75;7.15;;;;;;;33.17;26.00;100083.03;5102578;27;20031;-56
2022/07/18 08:29:46;;;;;;;69.20;6.88;;;;;;;33.04;26.99;100085.25;5113746;27;20027;-57
2022/07/18 08:32:13;;;;;;;68.03;6.68;;;;;;;33.47;26.30;100085.88;5115199;27;20060;-56
2022/07/18 08:34:38;;;;;;;59.85;7.00;;;;;;;34.07;25.23;100087.81;5118292;27;20032;-56
2022/07/18 08:37:04;;;;;;;52.55;6.25;;;;;;;33.17;26.93;100077.50;5114103;27;20027;-57
2022/07/18 08:39:29;;;;;;;47.22;7.20;;;;;;;31.71;28.41;100075.69;5095719;27;20023;-57
2022/07/18 08:41:55;;;;;;;56.63;6.50;;;;;;;31.55;28.61;100084.03;5123263;27;20027;-56
2022/07/18 08:44:20;;;;;;;62.15;7.03;;;;;;;31.45;27.77;100074.38;5100128;28;20027;-56
2022/07/18 08:46:50;;;;;;;46.42;6.05;;;;;;;32.95;26.60;100084.69;5118671;28;20035;-56
2022/07/18 08:49:15;;;;;;;68.10;6.50;;;;;;;32.31;27.94;100081.59;5119234;27;20019;-56
2022/07/18 08:51:42;;;;;;;56.85;7.03;;;;;;;32.63;26.94;100075.84;5115766;27;20076;-57
2022/07/18 08:54:07;;;;;;;51.63;6.30;;;;;;;32.85;26.72;100072.25;5121704;27;20496;-56
2022/07/18 08:56:32;;;;;;;56.03;5.80;;;;;;;32.65;26.97;100073.47;5098135;28;20039;-56
2022/07/18 08:59:02;;;;;;;58.40;6.43;;;;;;;32.75;26.06;100066.50;5095528;28;20019;-56
2022/07/18 09:01:27;;;;;;;53.67;6.20;;;;;;;32.27;27.45;100075.19;5116129;28;20035;-56
2022/07/18 09:06:48;;;;;;;35.92;5.00;;;;;;;31.35;26.32;100064.63;5100543;28;20096;-55
2022/07/18 09:09:15;;;;;;;61.38;6.60;;;;;;;31.54;27.77;100072.16;5115273;28;20064;-57
2022/07/18 09:11:54;;;;;;;68.63;6.40;;;;;;;32.63;27.38;100065.56;5114851;28;20023;-57
2022/07/18 09:14:45;;;;;;;39.97;5.90;;;;;;;32.90;24.96;100070.31;5111122;28;20016;-58
2022/07/18 09:17:15;;;;;;;53.47;6.22;;;;;;;32.67;26.77;100071.16;5113333;28;20023;-57
2022/07/18 09:19:43;;;;;;;47.83;5.75;;;;;;;31.79;26.15;100067.13;5119959;28;20023;-57
2022/07/18 09:22:22;;;;;;;39.42;5.47;;;;;;;33.77;24.79;100071.16;5102345;28;20469;-57
2022/07/18 09:24:54;;;;;;;;;;;;;;;34.02;24.21;100062.28;5115865;28;20031;-57
2022/07/18 09:27:28;;;;;;;41.83;5.50;;;;;;;34.36;23.66;100063.84;5113580;28;19920;-57
2022/07/18 09:30:09;;;;;;;25.33;3.95;;;;;;;33.33;23.93;100069.00;5113767;28;20038;-57
2022/07/18 09:32:35;;;;;;;40.95;4.97;;;;;;;33.24;23.45;100066.47;5107556;27;20047;-57
2022/07/18 09:35:07;;;;;;;38.53;5.13;;;;;;;33.05;24.37;100063.81;5096518;27;20203;-57
2022/07/18 09:37:33;;;;;;;25.08;3.63;;;;;;;34.11;22.09;100058.06;5123003;27;20028;-57
2022/07/18 09:40:18;;;;;;;28.58;4.22;;;;;;;33.15;23.10;100062.38;5104760;27;20042;-57
2022/07/18 09:42:44;;;;;;;40.13;4.38;;;;;;;33.47;24.14;100060.84;5115772;27;20118;-57
2022/07/18 09:45:09;;;;;;;30.95;5.57;;;;;;;34.07;24.30;100056.38;5095993;28;20031;-56
2022/07/18 09:47:58;;;;;;;39.65;5.18;;;;;;;33.83;22.78;100057.72;5118076;27;20028;-57
2022/07/18 09:50:28;;;;;;;25.08;4.22;;;;;;;32.78;23.30;100058.25;5120434;27;20023;-56
2022/07/18 09:53:05;;;;;;;20.48;4.03;;;;;;;33.90;22.86;100049.47;5102093;28;20391;-56
2022/07/18 09:55:31;;;;;;;16.63;3.92;;;;;;;32.98;21.89;100052.59;5116698;27;20023;-56
2022/07/18 09:58:02;;;;;;;20.35;3.67;;;;;;;33.02;22.43;100054.25;5105346;27;20031;-56
2022/07/18 10:00:29;;;;;;;15.23;3.13;;;;;;;33.24;22.51;100044.25;5119711;27;20027;-58
2022/07/18 10:02:54;;;;;;;22.95;3.70;;;;;;;34.34;21.55;100043.97;5117118;27;20037;-61
2022/07/18 10:05:20;;;;;;;18.65;4.03;;;;;;;34.43;21.46;100046.44;5124169;27;20414;-57
2022/07/18 10:07:45;;;;;;;22.48;4.05;;;;;;;33.40;22.49;100043.28;5077014;28;20077;-56
2022/07/18 10:10:11;;;;;;;18.55;3.25;;;;;;;33.21;22.83;100045.03;5101760;28;20023;-57
2022/07/18 10:12:37;;;;;;;18.50;3.42;;;;;;;32.29;22.35;100039.56;5106675;27;20015;-56
2022/07/18 10:15:02;;;;;;;15.93;3.88;;;;;;;32.85;22.49;100038.94;5103971;27;20027;-57
2022/07/18 10:17:28;;;;;;;19.67;3.25;;;;;;;33.34;21.69;100033.69;5123668;27;20083;-56
2022/07/18 10:19:53;;;;;;;11.65;2.90;;;;;;;34.20;21.12;100032.72;5090859;27;20019;-56
2022/07/18 10:22:19;;;;;;;13.10;3.20;;;;;;;32.44;21.57;100027.53;5095211;28;20016;-57
2022/07/18 10:24:44;;;;;;;11.57;3.42;;;;;;;32.65;22.12;100029.09;5086800;27;20035;-56
2022/07/18 10:27:17;;;;;;;13.15;3.20;;;;;;;33.64;22.04;100023.34;5098621;27;20030;-56
2022/07/18 10:30:08;;;;;;;11.45;3.03;;;;;;;34.56;20.99;100022.69;5120053;27;20023;-57
2022/07/18 10:32:33;;;;;;;13.48;3.95;;;;;;;35.29;19.86;100013.63;5119021;27;20027;-57
2022/07/18 10:34:59;;;;;;;10.63;3.78;;;;;;;35.41;18.62;100015.28;5119762;27;20035;-56
2022/07/18 10:37:25;;;;;;;13.35;3.78;;;;;;;35.31;19.24;100008.47;5118439;27;20015;-56
2022/07/18 10:39:50;;;;;;;15.35;3.80;;;;;;;35.28;18.38;100016.81;5125276;27;20036;-56
2022/07/18 10:42:18;;;;;;;9.93;3.40;;;;;;;34.70;18.60;100015.66;5116898;27;20429;-57
2022/07/18 10:44:44;;;;;;;10.13;3.37;;;;;;;34.94;18.56;100017.00;5118100;27;20028;-56
2022/07/18 10:47:27;;;;;;;11.18;3.40;;;;;;;35.73;18.30;100009.81;5117606;27;20074;-56
2022/07/18 10:49:58;;;;;;;16.65;3.45;;;;;;;36.01;17.60;100002.72;5118642;27;20028;-56
2022/07/18 10:52:26;;;;;;;8.00;3.38;;;;;;;33.51;19.15;100014.44;5118331;27;20466;-56
2022/07/18 10:57:34;;;;;;;8.38;3.60;;;;;;;31.92;20.47;100012.34;5116283;27;20438;-56
2022/07/18 11:00:00;;;;;;;11.10;3.60;;;;;;;33.30;19.28;100008.66;5125561;27;20053;-56
2022/07/18 11:02:42;;;;;;;9.05;3.63;;;;;;;33.75;19.22;100015.16;5117656;27;20024;-55
2022/07/18 11:05:22;;;;;;;10.60;3.40;;;;;;;34.09;19.58;100004.78;5080564;28;20051;-56
2022/07/18 11:07:57;;;;;;;13.75;3.95;;;;;;;35.09;18.81;100006.75;5081481;28;20390;-56
2022/07/18 11:10:41;;;;;;;7.28;3.20;;;;;;;35.92;17.51;100005.06;5084864;28;20020;-56
2022/07/18 11:13:27;;;;;;;9.13;3.40;;;;;;;35.41;17.79;99998.53;5077989;28;20031;-55
2022/07/18 11:15:55;;;;;;;22.55;3.60;;;;;;;33.44;18.77;99997.69;5078205;28;20060;-56
2022/07/18 11:18:21;;;;;;;5.82;3.08;;;;;;;32.47;20.36;100000.25;5076901;28;20509;-55
2022/07/18 11:20:47;;;;;;;11.40;3.25;;;;;;;32.42;20.00;99996.59;5082350;28;20041;-56
2022/07/18 11:23:23;;;;;;;10.15;3.15;;;;;;;34.46;18.78;99990.00;5076708;28;20724;-56
2022/07/18 11:25:50;;;;;;;10.05;3.10;;;;;;;35.22;18.50;99980.16;5075574;28;20110;-55